Time;durP1;ratioP1;P1;durP2;ratioP2;P2;SDS_P1;SDS_P2;PMS_P1;PMS_P2;Temp;Humidity;BMP_temperature;BMP_pressure;BME280_temperature;BME280_humidity;BME280_pressure;Samples;Min_cycle;Max_cycle;Signal;HPM_P1;HPM_P2
2021/03/03 00:02:43;;;;;;;96.90;41.87;;;;;;;-0.85;73.17;100435.71;2162028;82;21110;-79
2021/03/03 00:05:45;;;;;;;94.60;42.47;;;;;;;-0.89;73.27;100436.20;2162685;82;21268;-79
2021/03/03 00:08:46;;;;;;;95.47;43.63;;;;;;;-0.89;73.18;100431.45;2162172;82;21293;-79
2021/03/03 00:11:47;;;;;;;91.87;41.13;;;;;;;-0.92;73.21;100437.23;2162677;82;21134;-80
2021/03/03 00:14:48;;;;;;;98.00;43.60;;;;;;;-0.95;73.21;100436.98;2162316;82;21288;-79
2021/03/03 00:17:49;;;;;;;96.63;42.50;;;;;;;-0.98;73.23;100437.63;2171172;81;21495;-80
2021/03/03 00:20:50;;;;;;;98.97;43.47;;;;;;;-1.00;73.28;100431.86;2172397;82;21125;-79
2021/03/03 00:23:51;;;;;;;91.47;41.77;;;;;;;-1.01;73.28;100433.53;2172601;82;21162;-79
2021/03/03 00:26:55;;;;;;;91.53;42.50;;;;;;;-1.03;73.27;100429.94;2172105;82;21162;-82
2021/03/03 00:29:56;;;;;;;220.77;50.13;;;;;;;-1.07;73.10;100423.16;2172129;82;21150;-80
2021/03/03 00:32:57;;;;;;;101.50;42.77;;;;;;;-1.10;73.35;100421.62;2172447;82;21134;-79
2021/03/03 00:35:58;;;;;;;85.40;40.97;;;;;;;-1.10;73.45;100426.75;2172112;82;21407;-79
2021/03/03 00:38:59;;;;;;;97.10;44.23;;;;;;;-1.11;73.54;100422.39;2171772;82;21122;-79
2021/03/03 00:42:00;;;;;;;95.00;44.40;;;;;;;-1.10;73.57;100426.75;2172179;82;21138;-79
2021/03/03 00:45:01;;;;;;;96.90;42.73;;;;;;;-1.08;73.59;100426.48;2171954;82;21428;-82
2021/03/03 00:48:02;;;;;;;91.70;43.30;;;;;;;-1.06;73.63;100421.11;2171989;82;21281;-79
2021/03/03 00:51:04;;;;;;;85.50;42.83;;;;;;;-1.07;73.65;100419.31;2171636;82;21095;-79
2021/03/03 00:54:05;;;;;;;96.00;43.33;;;;;;;-1.10;73.52;100413.94;2171537;82;21131;-80
2021/03/03 00:57:06;;;;;;;86.70;43.03;;;;;;;-1.11;73.20;100417.27;2171932;82;21253;-77
2021/03/03 01:00:07;;;;;;;237.47;49.73;;;;;;;-1.15;73.33;100415.22;2171457;82;21245;-79
2021/03/03 01:03:08;;;;;;;100.10;44.23;;;;;;;-1.20;73.25;100420.35;2170472;82;21249;-78
2021/03/03 01:06:09;;;;;;;94.00;44.70;;;;;;;-1.25;73.22;100417.41;2170649;82;21095;-79
2021/03/03 01:09:10;;;;;;;101.13;44.53;;;;;;;-1.29;73.18;100412.41;2171549;82;21190;-79
2021/03/03 01:12:11;;;;;;;94.40;44.93;;;;;;;-1.32;73.30;100410.88;2171499;82;21201;-78
2021/03/03 01:15:12;;;;;;;101.53;45.53;;;;;;;-1.33;73.40;100406.91;2171978;82;21138;-79
2021/03/03 01:18:13;;;;;;;101.60;44.63;;;;;;;-1.34;73.31;100400.89;2178849;81;21145;-79
2021/03/03 01:21:15;;;;;;;100.63;46.23;;;;;;;-1.38;73.05;100404.35;2179446;82;21141;-80
2021/03/03 01:24:16;;;;;;;95.13;45.77;;;;;;;-1.47;72.98;100399.36;2179170;81;21126;-80
2021/03/03 01:27:17;;;;;;;93.63;43.90;;;;;;;-1.48;73.31;100398.84;2178888;81;21193;-80
2021/03/03 01:30:18;;;;;;;101.23;46.40;;;;;;;-1.49;73.25;100399.61;2179101;81;21236;-79
2021/03/03 01:33:19;;;;;;;95.33;43.67;;;;;;;-1.51;73.31;100399.87;2179039;81;21133;-78
2021/03/03 01:36:27;;;;;;;98.17;43.47;;;;;;;-1.51;73.33;100397.70;2178885;81;21145;-80
2021/03/03 01:39:29;;;;;;;92.47;43.47;;;;;;;-1.50;73.43;100393.98;2179085;81;21208;-79
2021/03/03 01:42:30;;;;;;;90.63;42.07;;;;;;;-1.51;73.42;100386.17;2179212;81;21439;-79
2021/03/03 01:45:31;;;;;;;87.87;40.83;;;;;;;-1.52;73.54;100385.27;2179204;81;21133;-79
2021/03/03 01:48:35;;;;;;;91.53;42.13;;;;;;;-1.52;73.51;100390.78;2179233;81;21169;-79
2021/03/03 01:51:36;;;;;;;87.83;43.17;;;;;;;-1.53;73.22;100386.42;2179871;82;21150;-79
2021/03/03 01:54:37;;;;;;;92.43;41.70;;;;;;;-1.56;73.14;100389.63;2179560;81;21416;-80
2021/03/03 01:57:38;;;;;;;88.67;39.67;;;;;;;-1.58;73.21;100377.08;2179384;81;21142;-83
2021/03/03 02:00:39;;;;;;;89.00;41.93;;;;;;;-1.58;72.99;100384.77;2179503;81;21129;-79
2021/03/03 02:03:40;;;;;;;96.20;43.40;;;;;;;-1.60;73.00;100382.46;2179939;81;21138;-80
2021/03/03 02:06:41;;;;;;;86.47;40.93;;;;;;;-1.60;73.04;100377.34;2179641;81;21150;-80
2021/03/03 02:09:42;;;;;;;132.53;42.80;;;;;;;-1.58;72.81;100380.02;2179422;81;21134;-79
2021/03/03 02:12:49;;;;;;;98.07;42.30;;;;;;;-1.62;72.90;100376.31;2179303;81;21412;-79
2021/03/03 02:15:50;;;;;;;109.97;43.30;;;;;;;-1.64;73.09;100372.73;2178690;81;21436;-79
2021/03/03 02:18:51;;;;;;;91.17;40.77;;;;;;;-1.63;73.14;100373.23;2178842;81;21260;-80
2021/03/03 02:21:52;;;;;;;86.17;42.07;;;;;;;-1.63;73.01;100362.61;2179138;81;21122;-80
2021/03/03 02:24:53;;;;;;;86.37;41.47;;;;;;;-1.64;72.91;100363.77;2178894;81;21122;-81
2021/03/03 02:27:54;;;;;;;89.73;41.20;;;;;;;-1.66;72.65;100361.08;2178932;81;21569;-80
2021/03/03 02:30:55;;;;;;;95.37;43.37;;;;;;;-1.70;72.70;100361.98;2179597;81;21125;-81
2021/03/03 02:33:56;;;;;;;85.73;39.70;;;;;;;-1.73;72.83;100357.88;2179816;81;21130;-81
2021/03/03 02:36:57;;;;;;;92.67;42.97;;;;;;;-1.72;72.72;100353.27;2179761;81;21392;-81
2021/03/03 02:39:58;;;;;;;89.70;41.40;;;;;;;-1.75;72.53;100355.54;2179099;81;21125;-79
2021/03/03 02:42:59;;;;;;;95.53;43.33;;;;;;;-1.79;72.63;100348.38;2179770;81;21134;-80
2021/03/03 02:46:00;;;;;;;83.60;41.10;;;;;;;-1.81;72.59;100344.41;2179505;81;21098;-84
2021/03/03 02:49:02;;;;;;;125.17;56.57;;;;;;;-1.75;75.78;100345.30;2179659;81;21181;-79
2021/03/03 02:52:03;;;;;;;131.77;61.57;;;;;;;3.08;89.17;100332.75;2179530;81;21098;-79
2021/03/03 02:55:04;;;;;;;126.07;63.77;;;;;;;6.82;86.24;100314.83;2179458;81;21138;-80
2021/03/03 02:58:05;;;;;;;128.03;63.90;;;;;;;9.35;76.92;100307.28;2179409;82;21133;-79
2021/03/03 03:01:06;;;;;;;106.00;55.67;;;;;;;10.94;68.93;100308.47;2179367;81;21146;-80
2021/03/03 03:04:07;;;;;;;107.57;54.10;;;;;;;11.96;63.79;100298.68;2179340;81;21141;-79
2021/03/03 03:07:08;;;;;;;96.60;51.47;;;;;;;12.63;59.47;100301.91;2179318;81;21177;-80
2021/03/03 03:10:09;;;;;;;87.40;48.10;;;;;;;13.28;57.26;100294.00;2179403;81;21203;-80
2021/03/03 03:13:10;;;;;;;86.63;47.13;;;;;;;13.74;54.66;100290.69;2179315;81;21110;-79
2021/03/03 03:16:11;;;;;;;90.40;49.47;;;;;;;14.08;52.42;100288.81;2179027;81;21472;-83
2021/03/03 03:19:12;;;;;;;274.20;59.17;;;;;;;14.28;50.86;100288.80;2179050;81;21177;-81
2021/03/03 03:22:13;;;;;;;258.47;54.23;;;;;;;14.47;48.35;100291.37;2179166;81;21260;-80
2021/03/03 03:25:14;;;;;;;91.32;47.53;;;;;;;14.56;46.90;100292.44;2178654;81;21479;-79
2021/03/03 03:28:15;;;;;;;254.05;49.27;;;;;;;14.59;45.97;100283.30;2179008;81;21694;-80
2021/03/03 03:31:16;;;;;;;76.67;40.75;;;;;;;13.84;41.73;100283.48;2179293;81;21101;-80
2021/03/03 03:34:17;;;;;;;73.63;41.07;;;;;;;10.57;40.34;100291.97;2179479;81;21141;-80
2021/03/03 03:37:18;;;;;;;137.13;45.07;;;;;;;7.73;42.21;100293.70;2179171;81;21138;-82
2021/03/03 03:40:19;;;;;;;243.83;54.70;;;;;;;5.59;44.57;100302.70;2179221;81;21272;-80
2021/03/03 03:43:20;;;;;;;81.03;43.43;;;;;;;3.97;46.91;100309.58;2179156;81;21109;-80
2021/03/03 03:46:21;;;;;;;116.77;41.97;;;;;;;2.71;49.22;100311.39;2179341;81;21150;-80
2021/03/03 03:49:23;;;;;;;79.47;39.57;;;;;;;2.34;51.73;100308.02;2179560;81;21296;-79
2021/03/03 03:52:24;;;;;;;75.07;39.63;;;;;;;1.65;52.65;100307.12;2179407;81;21099;-80
2021/03/03 03:55:28;;;;;;;144.77;42.60;;;;;;;1.00;53.90;100305.89;2179210;81;21482;-79
2021/03/03 03:58:29;;;;;;;142.43;41.40;;;;;;;0.52;55.09;100304.44;2179345;81;21102;-79
2021/03/03 04:01:30;;;;;;;96.57;39.10;;;;;;;0.12;56.26;100305.70;2178798;81;21419;-80
2021/03/03 04:04:31;;;;;;;78.47;40.13;;;;;;;-0.21;57.39;100310.39;2178542;81;21086;-81
2021/03/03 04:07:32;;;;;;;77.03;37.60;;;;;;;-0.46;58.20;100311.45;2177965;81;21195;-79
2021/03/03 04:10:33;;;;;;;76.67;38.03;;;;;;;-0.71;58.55;100315.92;2178046;81;21761;-80
2021/03/03 04:13:34;;;;;;;82.03;38.27;;;;;;;-1.00;59.28;100312.68;2178844;81;21126;-79
2021/03/03 04:16:35;;;;;;;303.07;48.27;;;;;;;-1.24;60.27;100316.72;2176733;81;21162;-82
2021/03/03 04:19:36;;;;;;;95.90;37.10;;;;;;;-1.41;61.21;100309.33;2162336;82;21091;-80
2021/03/03 04:22:37;;;;;;;139.20;39.47;;;;;;;-1.55;61.84;100309.86;2161691;82;21142;-81
2021/03/03 04:25:38;;;;;;;82.00;36.83;;;;;;;-1.66;62.32;100310.25;2160764;82;21123;-79
2021/03/03 04:28:39;;;;;;;149.47;80.27;;;;;;;-1.72;62.75;100307.19;2161637;82;21397;-80
2021/03/03 04:31:40;;;;;;;83.73;38.97;;;;;;;-1.79;63.23;100306.13;2160886;82;21154;-79
2021/03/03 04:34:41;;;;;;;92.47;36.47;;;;;;;-1.87;63.49;100311.00;2159609;82;21715;-79
2021/03/03 04:37:42;;;;;;;80.50;37.70;;;;;;;-1.98;63.67;100308.82;2160184;82;21135;-80
2021/03/03 04:40:43;;;;;;;78.63;36.37;;;;;;;-2.06;63.95;100300.50;2159954;82;21130;-78
2021/03/03 04:43:44;;;;;;;108.63;52.77;;;;;;;-2.14;64.09;100295.13;2159027;82;21245;-80
2021/03/03 04:46:45;;;;;;;98.63;37.63;;;;;;;-2.22;63.82;100294.86;2158077;82;21920;-78
2021/03/03 04:49:46;;;;;;;81.50;37.57;;;;;;;-2.36;64.09;100292.41;2157450;82;21134;-78
2021/03/03 04:52:47;;;;;;;81.80;35.40;;;;;;;-2.41;64.54;100291.13;2157841;82;21166;-80
2021/03/03 04:55:48;;;;;;;99.53;41.27;;;;;;;-2.48;64.24;100291.75;2157389;82;21846;-79
2021/03/03 04:58:50;;;;;;;86.73;38.90;;;;;;;-2.57;64.65;100295.30;2157904;82;21257;-79
2021/03/03 05:01:51;;;;;;;83.70;38.67;;;;;;;-2.64;64.79;100287.84;2158483;82;21575;-79
2021/03/03 05:04:52;;;;;;;97.30;40.97;;;;;;;-2.68;65.03;100288.34;2158281;82;21131;-81
2021/03/03 05:07:53;;;;;;;114.83;39.30;;;;;;;-2.73;65.54;100290.88;2159033;82;21476;-79
2021/03/03 05:10:54;;;;;;;83.47;37.10;;;;;;;-2.72;66.30;100288.84;2158909;82;21254;-80
2021/03/03 05:13:55;;;;;;;82.47;37.37;;;;;;;-2.73;66.59;100289.98;2158824;82;21087;-80
2021/03/03 05:16:56;;;;;;;349.40;50.33;;;;;;;-2.72;66.73;100286.66;2161746;81;21186;-79
2021/03/03 05:19:57;;;;;;;96.73;38.33;;;;;;;-2.75;66.76;100285.13;2175948;81;21153;-80
2021/03/03 05:22:58;;;;;;;78.20;36.80;;;;;;;-2.79;67.01;100280.13;2176551;81;21130;-79
2021/03/03 05:25:59;;;;;;;138.10;38.80;;;;;;;-2.76;67.11;100281.67;2175463;81;21118;-79
2021/03/03 05:29:00;;;;;;;79.33;38.37;;;;;;;-2.72;67.30;100280.27;2176053;81;21178;-79
2021/03/03 05:32:01;;;;;;;720.23;77.50;;;;;;;-2.67;67.64;100285.41;2176024;81;21249;-79
2021/03/03 05:35:02;;;;;;;112.80;39.53;;;;;;;-2.66;67.38;100281.70;2175556;81;21253;-79
2021/03/03 05:38:03;;;;;;;100.17;39.73;;;;;;;-2.66;67.49;100286.81;2176381;81;21090;-79
2021/03/03 05:41:04;;;;;;;102.70;47.63;;;;;;;-2.62;67.56;100282.86;2176185;81;21253;-79
2021/03/03 05:44:05;;;;;;;78.00;37.53;;;;;;;-2.60;67.51;100284.81;2175638;81;21649;-80
2021/03/03 05:47:06;;;;;;;141.83;43.53;;;;;;;-2.55;67.51;100291.98;2176543;81;21284;-79
2021/03/03 05:50:07;;;;;;;125.97;38.83;;;;;;;-2.51;67.46;100285.09;2175826;81;21248;-78
2021/03/03 05:53:08;;;;;;;159.83;41.13;;;;;;;-2.47;67.41;100289.32;2175699;81;21149;-80
2021/03/03 05:56:09;;;;;;;120.03;42.00;;;;;;;-2.38;67.56;100290.11;2174514;81;21959;-80
2021/03/03 05:59:11;;;;;;;117.83;47.83;;;;;;;-2.31;67.45;100286.41;2174661;81;21259;-78
2021/03/03 06:02:12;;;;;;;114.23;45.50;;;;;;;-2.27;67.54;100280.41;2175015;81;21268;-80
2021/03/03 06:05:13;;;;;;;122.87;44.93;;;;;;;-2.19;67.43;100286.16;2175658;81;21579;-79
2021/03/03 06:08:15;;;;;;;96.33;42.87;;;;;;;-2.06;67.50;100286.81;2175443;81;21304;-80
2021/03/03 06:11:16;;;;;;;90.20;43.80;;;;;;;-1.91;67.62;100286.81;2176450;81;21264;-80
2021/03/03 06:14:17;;;;;;;93.40;44.43;;;;;;;-1.76;67.72;100292.31;2176501;81;21760;-79
2021/03/03 06:17:19;;;;;;;97.67;43.60;;;;;;;-1.61;67.74;100282.09;2172296;81;21878;-80
2021/03/03 06:20:20;;;;;;;441.87;59.07;;;;;;;-1.45;67.68;100277.45;2158246;82;21913;-80
2021/03/03 06:23:21;;;;;;;143.17;48.53;;;;;;;-1.26;67.69;100277.66;2158593;82;21185;-80
2021/03/03 06:26:22;;;;;;;129.23;47.07;;;;;;;-1.12;67.79;100270.69;2158307;82;21143;-79
2021/03/03 06:29:24;;;;;;;109.20;47.30;;;;;;;-0.95;67.64;100265.23;2158203;82;21531;-81
2021/03/03 06:32:25;;;;;;;117.70;49.30;;;;;;;-0.77;67.72;100269.67;2158762;82;21146;-79
2021/03/03 06:35:26;;;;;;;161.50;48.10;;;;;;;-0.61;67.70;100259.84;2158982;82;21312;-79
2021/03/03 06:38:27;;;;;;;146.60;48.53;;;;;;;-0.49;67.73;100258.62;2158384;82;21170;-78
2021/03/03 06:41:29;;;;;;;106.53;46.30;;;;;;;-0.45;67.83;100258.97;2158693;82;21141;-80
2021/03/03 06:44:30;;;;;;;98.20;47.13;;;;;;;-0.27;67.92;100261.17;2158643;82;21130;-80
2021/03/03 06:47:31;;;;;;;97.53;46.23;;;;;;;-0.09;67.96;100257.05;2158435;82;21682;-80
2021/03/03 06:50:32;;;;;;;92.87;45.20;;;;;;;0.12;67.90;100256.91;2157681;82;21146;-80
2021/03/03 06:53:33;;;;;;;90.47;45.47;;;;;;;0.66;68.62;100252.78;2158322;82;21265;-81
2021/03/03 06:56:34;;;;;;;92.27;46.07;;;;;;;0.84;67.53;100255.01;2158241;82;21814;-80
2021/03/03 06:59:35;;;;;;;115.17;47.23;;;;;;;0.95;67.40;100254.14;2157821;82;21130;-79
2021/03/03 07:02:38;;;;;;;85.30;44.17;;;;;;;1.07;67.21;100253.23;2158128;82;21257;-81
2021/03/03 07:05:39;;;;;;;104.20;46.90;;;;;;;1.26;67.24;100255.03;2157797;82;21071;-80
2021/03/03 07:08:43;;;;;;;199.87;49.60;;;;;;;1.43;67.10;100260.08;2157965;82;22562;-80
2021/03/03 07:11:44;;;;;;;257.27;50.33;;;;;;;1.61;67.16;100260.08;2158118;82;21134;-80
2021/03/03 07:14:48;;;;;;;271.65;52.17;;;;;;;1.73;67.01;100256.16;2157818;82;21301;-79
2021/03/03 07:17:50;;;;;;;95.47;46.87;;;;;;;1.85;67.00;100251.50;2158014;82;21261;-80
2021/03/03 07:20:51;;;;;;;95.70;47.07;;;;;;;2.01;67.26;100253.83;2158271;82;21150;-81
2021/03/03 07:23:52;;;;;;;161.87;47.73;;;;;;;2.24;67.44;100251.11;2158568;82;21103;-80
2021/03/03 07:26:53;;;;;;;98.10;46.87;;;;;;;2.48;67.51;100250.16;2158068;82;21218;-80
2021/03/03 07:29:54;;;;;;;189.20;47.93;;;;;;;2.67;67.39;100248.81;2158907;82;21626;-80
2021/03/03 07:32:55;;;;;;;180.33;51.63;;;;;;;2.84;67.18;100247.83;2159461;82;21130;-79
2021/03/03 07:35:56;;;;;;;998.73;102.60;;;;;;;2.96;67.08;100243.85;2159282;82;21259;-80
2021/03/03 07:38:57;;;;;;;587.87;72.27;;;;;;;3.15;67.58;100244.63;2163441;81;21263;-80
2021/03/03 07:41:58;;;;;;;215.30;60.57;;;;;;;3.41;67.53;100244.97;2181869;81;21162;-79
2021/03/03 07:44:59;;;;;;;174.47;69.13;;;;;;;3.62;67.43;100241.16;2159120;82;21122;-80
2021/03/03 07:48:00;;;;;;;245.20;76.60;;;;;;;3.94;67.43;100234.47;2159605;82;21186;-81
2021/03/03 07:51:01;;;;;;;174.20;70.17;;;;;;;4.20;67.51;100230.44;2159477;82;21779;-80
2021/03/03 07:54:02;;;;;;;155.07;71.17;;;;;;;4.47;67.61;100231.19;2159785;82;21130;-79
2021/03/03 07:57:04;;;;;;;140.97;73.00;;;;;;;4.99;67.59;100237.63;2158765;82;21253;-80
2021/03/03 08:00:05;;;;;;;213.97;74.20;;;;;;;4.99;67.59;100237.63;2159026;82;21265;-79
2021/03/03 08:03:06;;;;;;;139.50;75.03;;;;;;;5.16;67.23;100237.67;2159222;82;21115;-79
2021/03/03 08:06:08;;;;;;;138.00;74.83;;;;;;;5.37;67.41;100234.59;2159289;81;21273;-79
2021/03/03 08:09:09;;;;;;;139.37;70.00;;;;;;;5.73;67.36;100234.38;2158430;82;21293;-79
2021/03/03 08:12:10;;;;;;;125.77;68.57;;;;;;;6.08;66.60;100228.91;2158349;82;21455;-80
2021/03/03 08:15:11;;;;;;;137.17;69.47;;;;;;;6.33;66.47;100233.65;2158000;82;21149;-79
2021/03/03 08:18:12;;;;;;;135.50;67.67;;;;;;;6.59;66.12;100229.77;2161331;81;21170;-80
2021/03/03 08:21:13;;;;;;;120.47;63.10;;;;;;;6.86;65.83;100225.03;2169089;81;21130;-78
2021/03/03 08:24:14;;;;;;;134.93;64.53;;;;;;;7.11;65.37;100221.94;2167104;81;21284;-80
2021/03/03 08:27:15;;;;;;;156.30;66.20;;;;;;;7.34;65.21;100221.30;2174980;80;21483;-79
2021/03/03 08:30:16;;;;;;;185.47;68.47;;;;;;;7.56;64.94;100209.77;2209645;80;21106;-79
2021/03/03 08:33:18;;;;;;;282.53;75.23;;;;;;;7.78;64.75;100209.03;2210601;80;21162;-81
2021/03/03 08:36:19;;;;;;;128.77;66.17;;;;;;;8.02;64.38;100197.95;2210583;80;21130;-79
2021/03/03 08:39:20;;;;;;;115.47;65.67;;;;;;;8.23;64.10;100197.17;2210248;80;21135;-79
2021/03/03 08:42:21;;;;;;;117.13;64.33;;;;;;;8.32;63.64;100190.16;2210139;80;21268;-80
2021/03/03 08:45:22;;;;;;;116.50;64.63;;;;;;;8.38;63.44;100186.96;2210938;80;21142;-80
2021/03/03 08:48:23;;;;;;;117.53;63.60;;;;;;;8.53;63.27;100181.98;2116969;83;21340;-80
2021/03/03 08:51:28;;;;;;;118.80;58.43;;;;;;;8.74;63.34;100182.00;2198567;81;21119;-80
2021/03/03 08:54:29;;;;;;;;;;;;;;;8.98;62.86;100179.89;2201082;81;21099;-80
2021/03/03 08:57:30;;;;;;;105.13;59.07;;;;;;;9.14;62.00;100177.05;2198295;81;20231;-81
2021/03/03 09:00:31;;;;;;;106.52;60.70;;;;;;;9.26;62.05;100173.61;2197535;81;21280;-80
2021/03/03 09:03:32;;;;;;;99.87;60.83;;;;;;;9.46;61.94;100175.25;2196312;81;21154;-82
2021/03/03 09:06:33;;;;;;;96.77;60.57;;;;;;;9.56;61.38;100161.77;2197634;81;21297;-81
2021/03/03 09:09:34;;;;;;;113.20;66.93;;;;;;;9.77;61.16;100160.77;2198093;81;21636;-84
2021/03/03 09:12:36;;;;;;;97.80;57.23;;;;;;;9.93;60.04;100160.89;2197778;81;21139;-79
2021/03/03 09:15:37;;;;;;;93.17;55.97;;;;;;;10.00;58.92;100155.94;2115219;83;21253;-78
2021/03/03 09:18:38;;;;;;;90.60;53.80;;;;;;;10.19;59.42;100157.46;2196076;81;21614;-79
2021/03/03 09:21:40;;;;;;;780.33;89.97;;;;;;;10.36;57.05;100159.37;2115771;83;21273;-80
2021/03/03 09:24:41;;;;;;;88.77;49.67;;;;;;;10.25;57.40;100159.01;2197334;81;21264;-79
2021/03/03 09:27:42;;;;;;;89.22;51.00;;;;;;;10.24;57.65;100156.34;2197033;81;21964;-79
2021/03/03 09:30:44;;;;;;;94.15;52.93;;;;;;;10.27;57.53;100153.84;2197157;81;21273;-78
2021/03/03 09:33:47;;;;;;;85.53;50.08;;;;;;;10.38;57.85;100155.09;2196642;81;21234;-79
2021/03/03 09:36:48;;;;;;;95.35;52.00;;;;;;;10.49;57.00;100151.14;2196725;81;21087;-80
2021/03/03 09:39:49;;;;;;;81.15;50.58;;;;;;;10.52;57.26;100148.63;2196175;81;21126;-80
2021/03/03 09:42:50;;;;;;;76.85;45.83;;;;;;;10.66;56.41;100151.69;2197121;81;21154;-80
2021/03/03 09:45:52;;;;;;;85.22;43.95;;;;;;;10.73;56.13;100149.73;2197732;81;21261;-78
2021/03/03 09:48:53;;;;;;;74.50;46.53;;;;;;;10.89;56.03;100145.88;2116477;83;21324;-80
2021/03/03 09:51:54;;;;;;;77.30;45.03;;;;;;;10.96;54.74;100140.89;2195958;81;21131;-80
2021/03/03 09:54:55;;;;;;;74.07;45.83;;;;;;;11.03;55.44;100136.74;2191353;81;21268;-78
2021/03/03 09:57:56;;;;;;;71.70;43.47;;;;;;;11.18;54.90;100135.48;2195749;81;21428;-81
2021/03/03 10:00:57;;;;;;;72.42;43.83;;;;;;;11.31;54.65;100125.42;2197407;81;21265;-78
2021/03/03 10:03:58;;;;;;;204.87;51.28;;;;;;;11.45;54.53;100134.12;2197543;81;21115;-79
2021/03/03 10:06:59;;;;;;;73.57;42.93;;;;;;;11.59;54.31;100125.78;2196806;81;21248;-83
2021/03/03 10:10:00;;;;;;;69.67;41.77;;;;;;;11.68;52.46;100126.92;2115659;83;21296;-79
2021/03/03 10:13:01;;;;;;;68.20;35.00;;;;;;;11.69;53.01;100121.27;2197982;81;21138;-81
2021/03/03 10:16:03;;;;;;;59.38;34.88;;;;;;;11.74;50.29;100112.70;2116545;84;21444;-79
2021/03/03 10:19:04;;;;;;;49.08;32.17;;;;;;;11.69;49.36;100108.20;2196326;80;21441;-79
2021/03/03 10:22:05;;;;;;;51.63;30.12;;;;;;;11.70;49.24;100100.39;2108964;84;21970;-79
2021/03/03 10:25:06;;;;;;;58.30;34.63;;;;;;;11.79;49.84;100099.78;2203368;80;21146;-79
2021/03/03 10:28:07;;;;;;;59.60;34.48;;;;;;;11.95;49.67;100096.73;2109371;84;21190;-80
2021/03/03 10:31:08;;;;;;;54.03;31.23;;;;;;;12.04;49.02;100095.66;2203710;81;21277;-80
2021/03/03 10:34:10;;;;;;;48.42;29.67;;;;;;;12.10;49.62;100085.77;2108414;84;21280;-80
2021/03/03 10:37:11;;;;;;;43.38;25.92;;;;;;;12.26;48.64;100083.14;2203273;80;21118;-79
2021/03/03 10:40:12;;;;;;;40.85;26.60;;;;;;;12.43;44.78;100083.12;2108880;84;21256;-78
2021/03/03 10:43:13;;;;;;;39.63;23.65;;;;;;;12.45;46.60;100078.81;2202382;80;21602;-79
2021/03/03 10:46:16;;;;;;;39.23;25.50;;;;;;;12.52;44.47;100079.42;2107518;84;21297;-79
2021/03/03 10:49:18;;;;;;;41.65;26.85;;;;;;;12.47;43.81;100071.88;2202613;80;21296;-81
2021/03/03 10:52:21;;;;;;;45.00;26.48;;;;;;;12.52;45.95;100062.82;2108671;84;21635;-78
2021/03/03 10:55:22;;;;;;;46.00;27.10;;;;;;;12.65;46.09;100060.94;2202954;80;21265;-78
2021/03/03 10:58:23;;;;;;;47.50;27.82;;;;;;;12.74;46.12;100057.22;2108518;84;21603;-79
2021/03/03 11:01:26;;;;;;;53.90;29.02;;;;;;;12.86;46.11;100049.63;2202711;80;21150;-79
2021/03/03 11:04:27;;;;;;;51.23;27.50;;;;;;;12.98;44.32;100043.34;2108272;84;21304;-80
2021/03/03 11:07:28;;;;;;;43.23;25.27;;;;;;;13.01;46.17;100034.69;2202182;80;21300;-80
2021/03/03 11:10:29;;;;;;;144.40;33.13;;;;;;;13.05;44.75;100027.34;2108906;84;21146;-79
2021/03/03 11:13:30;;;;;;;59.98;26.85;;;;;;;13.07;45.40;100033.50;2203430;80;21137;-78
2021/03/03 11:16:31;;;;;;;45.75;25.25;;;;;;;13.21;45.32;100023.33;2108683;84;21154;-79
2021/03/03 11:19:32;;;;;;;73.45;27.22;;;;;;;13.34;44.85;100023.60;2201972;80;21288;-78
2021/03/03 11:22:34;;;;;;;111.65;31.07;;;;;;;13.40;45.08;100022.83;2109258;84;21162;-81
2021/03/03 11:25:35;;;;;;;189.95;33.48;;;;;;;13.53;45.20;100016.08;2202531;80;21269;-79
2021/03/03 11:28:36;;;;;;;41.42;24.02;;;;;;;13.61;44.99;100010.12;2109171;84;21300;-82
2021/03/03 11:31:37;;;;;;;41.28;23.60;;;;;;;13.62;43.01;100007.06;2203460;80;21268;-80
2021/03/03 11:34:38;;;;;;;118.05;28.52;;;;;;;13.58;39.81;100002.19;2108752;84;21268;-80
2021/03/03 11:37:39;;;;;;;40.75;23.25;;;;;;;13.60;43.54;99992.61;2203898;81;21139;-80
2021/03/03 11:40:40;;;;;;;43.98;23.90;;;;;;;13.74;43.52;99988.92;2108257;84;21150;-79
2021/03/03 11:43:41;;;;;;;37.90;21.65;;;;;;;13.88;43.16;99980.00;2201397;80;21658;-78
2021/03/03 11:46:42;;;;;;;36.38;19.02;;;;;;;14.01;42.85;99980.22;2108523;84;21284;-79
2021/03/03 11:49:44;;;;;;;29.20;16.60;;;;;;;14.07;40.19;99971.98;2204067;80;21277;-79
2021/03/03 11:52:45;;;;;;;28.83;17.95;;;;;;;14.09;36.87;99959.77;2109625;84;21142;-81
2021/03/03 11:55:46;;;;;;;44.38;19.82;;;;;;;14.07;39.60;99957.55;2203736;80;21425;-80
2021/03/03 11:58:47;;;;;;;30.37;17.65;;;;;;;14.13;37.87;99956.33;2108687;84;21455;-80
2021/03/03 12:01:51;;;;;;;28.62;16.62;;;;;;;14.19;38.63;99953.80;2203107;80;21135;-80
2021/03/03 12:04:54;;;;;;;56.88;16.35;;;;;;;14.26;37.91;99947.77;2109067;84;21278;-79
2021/03/03 12:07:55;;;;;;;31.70;16.93;;;;;;;14.28;37.30;99941.68;2203343;80;21771;-80
2021/03/03 12:10:56;;;;;;;21.42;15.15;;;;;;;14.34;37.83;99930.38;2108998;84;21140;-79
2021/03/03 12:13:57;;;;;;;25.68;16.12;;;;;;;14.38;36.46;99933.50;2203348;80;21123;-81
2021/03/03 12:16:58;;;;;;;28.70;15.75;;;;;;;14.37;37.60;99930.42;2109818;84;21927;-80
2021/03/03 12:19:59;;;;;;;122.60;21.82;;;;;;;14.38;38.20;99921.68;2204047;80;21474;-80
2021/03/03 12:23:00;;;;;;;23.65;14.13;;;;;;;14.46;37.90;99917.45;2109694;84;21281;-80
2021/03/03 12:26:01;;;;;;;17.85;12.28;;;;;;;14.48;36.10;99909.16;2203782;80;21245;-80
2021/03/03 12:29:02;;;;;;;51.13;13.98;;;;;;;14.57;37.09;99905.76;2108293;84;21158;-79
2021/03/03 12:32:04;;;;;;;19.90;12.43;;;;;;;14.57;36.39;99910.58;2202917;80;21137;-78
2021/03/03 12:35:05;;;;;;;61.63;22.48;;;;;;;14.61;35.89;99903.19;2108853;84;21106;-79
2021/03/03 12:38:06;;;;;;;101.00;17.95;;;;;;;14.68;35.44;99889.69;2203656;80;21110;-79
2021/03/03 12:41:07;;;;;;;18.17;9.83;;;;;;;14.76;35.87;99888.50;2109013;84;21268;-80
2021/03/03 12:44:10;;;;;;;17.10;10.65;;;;;;;14.81;33.76;99882.87;2203281;80;21154;-80
2021/03/03 12:47:11;;;;;;;21.87;10.85;;;;;;;14.80;32.98;99882.41;2108834;84;21301;-80
2021/03/03 12:50:14;;;;;;;42.58;11.22;;;;;;;14.77;33.00;99874.06;2202505;80;21803;-82
2021/03/03 12:53:15;;;;;;;12.63;9.08;;;;;;;14.81;32.92;99867.09;2108226;84;21550;-80
2021/03/03 12:56:16;;;;;;;13.60;9.03;;;;;;;14.85;33.65;99867.58;2202984;80;21269;-80
2021/03/03 12:59:17;;;;;;;13.58;8.85;;;;;;;14.87;32.16;99864.09;2108298;84;21138;-80
2021/03/03 13:02:18;;;;;;;52.48;10.60;;;;;;;14.88;31.68;99850.52;2201983;80;21261;-79
2021/03/03 13:05:20;;;;;;;23.47;10.35;;;;;;;14.92;33.19;99846.63;2106445;84;21480;-79
2021/03/03 13:08:22;;;;;;;20.92;9.78;;;;;;;14.96;33.71;99841.84;2199270;80;21312;-80
2021/03/03 13:11:25;;;;;;;64.42;13.78;;;;;;;15.00;33.07;99837.50;2200736;81;21264;-79
2021/03/03 13:14:26;;;;;;;44.20;12.68;;;;;;;15.04;34.17;99830.52;2107914;84;21150;-81
2021/03/03 13:17:28;;;;;;;40.88;10.80;;;;;;;15.06;33.93;99819.16;2202868;80;21150;-80
2021/03/03 13:20:32;;;;;;;85.38;14.85;;;;;;;15.09;33.79;99812.61;2126745;83;21300;-78
2021/03/03 13:23:33;;;;;;;33.80;9.38;;;;;;;15.10;34.03;99818.75;2196749;81;21995;-79
2021/03/03 13:26:34;;;;;;;25.40;9.45;;;;;;;15.12;33.85;99808.69;2140985;83;21181;-79
2021/03/03 13:29:37;;;;;;;21.35;9.68;;;;;;;15.15;33.83;99806.09;2196710;81;21285;-79
2021/03/03 13:32:38;;;;;;;25.50;10.90;;;;;;;15.18;33.44;99810.06;2140171;83;21166;-78
2021/03/03 13:35:39;;;;;;;247.73;25.25;;;;;;;15.17;33.86;99801.72;2196598;81;21710;-79
2021/03/03 13:38:40;;;;;;;21.52;9.75;;;;;;;15.17;33.81;99800.84;2140054;83;21170;-78
2021/03/03 13:41:41;;;;;;;12.63;8.08;;;;;;;15.12;33.83;99796.86;2198605;81;21239;-80
2021/03/03 13:44:42;;;;;;;26.10;8.88;;;;;;;15.13;33.32;99791.16;2141392;83;21149;-79